sensor_id;sensor_type;location;lat;lon;timestamp;temperature;humidity
2054;DHT22;1032;52.542;13.440;2023-08-12T00:00:43;20.30;99.90
2054;DHT22;1032;52.542;13.440;2023-08-12T00:03:10;20.20;99.90
2054;DHT22;1032;52.542;13.440;2023-08-12T00:05:36;20.20;99.90
2054;DHT22;1032;52.542;13.440;2023-08-12T00:08:05;20.20;99.90
2054;DHT22;1032;52.542;13.440;2023-08-12T00:10:32;20.20;99.90
2054;DHT22;1032;52.542;13.440;2023-08-12T00:13:00;20.20;99.90
2054;DHT22;1032;52.542;13.440;2023-08-12T00:15:26;20.20;99.90
2054;DHT22;1032;52.542;13.440;2023-08-12T00:17:53;20.10;99.90
2054;DHT22;1032;52.542;13.440;2023-08-12T00:20:20;20.10;99.90
2054;DHT22;1032;52.542;13.440;2023-08-12T00:22:46;20.10;99.90
2054;DHT22;1032;52.542;13.440;2023-08-12T00:25:13;20.10;99.90
2054;DHT22;1032;52.542;13.440;2023-08-12T00:27:39;20.10;99.90
2054;DHT22;1032;52.542;13.440;2023-08-12T00:30:08;20.10;99.90
2054;DHT22;1032;52.542;13.440;2023-08-12T00:32:35;20.10;99.90
2054;DHT22;1032;52.542;13.440;2023-08-12T00:35:02;20.10;99.90
2054;DHT22;1032;52.542;13.440;2023-08-12T00:37:29;20.10;99.90
2054;DHT22;1032;52.542;13.440;2023-08-12T00:39:55;20.10;99.90
2054;DHT22;1032;52.542;13.440;2023-08-12T00:42:22;20.10;99.90
2054;DHT22;1032;52.542;13.440;2023-08-12T00:44:49;20.10;99.90
2054;DHT22;1032;52.542;13.440;2023-08-12T00:47:17;20.10;99.90
2054;DHT22;1032;52.542;13.440;2023-08-12T00:49:45;20.10;99.90
2054;DHT22;1032;52.542;13.440;2023-08-12T00:52:12;20.10;99.90
2054;DHT22;1032;52.542;13.440;2023-08-12T00:54:39;20.10;99.90
2054;DHT22;1032;52.542;13.440;2023-08-12T00:57:06;20.10;99.90
2054;DHT22;1032;52.542;13.440;2023-08-12T00:59:35;20.10;99.90
2054;DHT22;1032;52.542;13.440;2023-08-12T01:02:02;20.10;99.90
2054;DHT22;1032;52.542;13.440;2023-08-12T01:04:30;20.10;99.90
2054;DHT22;1032;52.542;13.440;2023-08-12T01:06:57;20.10;99.90
2054;DHT22;1032;52.542;13.440;2023-08-12T01:09:24;20.10;99.90
2054;DHT22;1032;52.542;13.440;2023-08-12T01:12:03;20.10;99.90
2054;DHT22;1032;52.542;13.440;2023-08-12T01:14:37;20.10;99.90
2054;DHT22;1032;52.542;13.440;2023-08-12T01:17:09;20.00;99.90
2054;DHT22;1032;52.542;13.440;2023-08-12T01:19:40;20.00;99.90
2054;DHT22;1032;52.542;13.440;2023-08-12T01:22:09;20.00;99.90
2054;DHT22;1032;52.542;13.440;2023-08-12T01:24:39;20.00;99.90
2054;DHT22;1032;52.542;13.440;2023-08-12T01:27:13;20.00;99.90
2054;DHT22;1032;52.542;13.440;2023-08-12T01:29:41;20.00;99.90
2054;DHT22;1032;52.542;13.440;2023-08-12T01:32:17;19.90;99.90
2054;DHT22;1032;52.542;13.440;2023-08-12T01:34:48;19.90;99.90
2054;DHT22;1032;52.542;13.440;2023-08-12T01:37:21;20.10;99.90
2054;DHT22;1032;52.542;13.440;2023-08-12T01:39:52;19.90;99.90
2054;DHT22;1032;52.542;13.440;2023-08-12T01:42:20;19.90;99.90
2054;DHT22;1032;52.542;13.440;2023-08-12T01:44:47;19.60;99.90
2054;DHT22;1032;52.542;13.440;2023-08-12T01:47:14;19.80;99.90
2054;DHT22;1032;52.542;13.440;2023-08-12T01:49:41;19.80;99.90
2054;DHT22;1032;52.542;13.440;2023-08-12T01:52:07;19.80;99.90
2054;DHT22;1032;52.542;13.440;2023-08-12T01:54:34;19.80;99.90
2054;DHT22;1032;52.542;13.440;2023-08-12T01:57:03;19.80;99.90
2054;DHT22;1032;52.542;13.440;2023-08-12T01:59:31;19.80;99.90
2054;DHT22;1032;52.542;13.440;2023-08-12T02:01:58;19.70;99.90
2054;DHT22;1032;52.542;13.440;2023-08-12T02:04:25;19.70;99.90
2054;DHT22;1032;52.542;13.440;2023-08-12T02:06:52;19.70;99.90
2054;DHT22;1032;52.542;13.440;2023-08-12T02:09:19;19.70;99.90
2054;DHT22;1032;52.542;13.440;2023-08-12T02:11:46;19.60;99.90
2054;DHT22;1032;52.542;13.440;2023-08-12T02:14:14;19.70;99.90
2054;DHT22;1032;52.542;13.440;2023-08-12T02:16:41;19.70;99.90
2054;DHT22;1032;52.542;13.440;2023-08-12T02:19:07;19.70;99.90
2054;DHT22;1032;52.542;13.440;2023-08-12T02:21:34;19.70;99.90
2054;DHT22;1032;52.542;13.440;2023-08-12T02:24:01;19.70;99.90
2054;DHT22;1032;52.542;13.440;2023-08-12T02:26:27;19.70;99.90
2054;DHT22;1032;52.542;13.440;2023-08-12T02:28:54;19.70;99.90
2054;DHT22;1032;52.542;13.440;2023-08-12T02:31:22;19.70;99.90
2054;DHT22;1032;52.542;13.440;2023-08-12T02:33:49;19.70;99.90
2054;DHT22;1032;52.542;13.440;2023-08-12T02:36:16;19.70;99.90
2054;DHT22;1032;52.542;13.440;2023-08-12T02:38:42;19.70;99.90
2054;DHT22;1032;52.542;13.440;2023-08-12T02:41:09;19.70;99.90
2054;DHT22;1032;52.542;13.440;2023-08-12T02:43:35;19.70;99.90
2054;DHT22;1032;52.542;13.440;2023-08-12T02:46:02;19.70;99.90
2054;DHT22;1032;52.542;13.440;2023-08-12T02:48:30;19.80;99.90
2054;DHT22;1032;52.542;13.440;2023-08-12T02:50:57;19.70;99.90
2054;DHT22;1032;52.542;13.440;2023-08-12T02:53:24;19.70;99.90
2054;DHT22;1032;52.542;13.440;2023-08-12T02:55:50;19.70;99.90
2054;DHT22;1032;52.542;13.440;2023-08-12T02:58:17;19.70;99.90
2054;DHT22;1032;52.542;13.440;2023-08-12T03:00:44;19.70;99.90
2054;DHT22;1032;52.542;13.440;2023-08-12T03:03:11;19.70;99.90
2054;DHT22;1032;52.542;13.440;2023-08-12T03:05:39;19.60;99.90
2054;DHT22;1032;52.542;13.440;2023-08-12T03:08:06;19.70;99.90
2054;DHT22;1032;52.542;13.440;2023-08-12T03:10:33;19.70;99.90
2054;DHT22;1032;52.542;13.440;2023-08-12T03:13:01;19.90;99.90
2054;DHT22;1032;52.542;13.440;2023-08-12T03:15:27;19.70;99.90
2054;DHT22;1032;52.542;13.440;2023-08-12T03:17:55;19.70;99.90
2054;DHT22;1032;52.542;13.440;2023-08-12T03:20:22;19.60;99.90
2054;DHT22;1032;52.542;13.440;2023-08-12T03:22:51;19.60;99.90
2054;DHT22;1032;52.542;13.440;2023-08-12T03:25:17;19.60;99.90
2054;DHT22;1032;52.542;13.440;2023-08-12T03:27:45;19.60;99.90
2054;DHT22;1032;52.542;13.440;2023-08-12T03:30:12;19.60;99.90
2054;DHT22;1032;52.542;13.440;2023-08-12T03:32:41;19.60;99.90
2054;DHT22;1032;52.542;13.440;2023-08-12T03:35:08;19.60;99.90
2054;DHT22;1032;52.542;13.440;2023-08-12T03:37:35;19.60;99.90
2054;DHT22;1032;52.542;13.440;2023-08-12T03:40:04;19.50;99.90
2054;DHT22;1032;52.542;13.440;2023-08-12T03:42:30;19.50;99.90
2054;DHT22;1032;52.542;13.440;2023-08-12T03:45:00;19.50;99.90
2054;DHT22;1032;52.542;13.440;2023-08-12T03:47:27;19.50;99.90
2054;DHT22;1032;52.542;13.440;2023-08-12T03:49:54;19.50;99.90
2054;DHT22;1032;52.542;13.440;2023-08-12T03:52:21;19.50;99.90
2054;DHT22;1032;52.542;13.440;2023-08-12T03:54:48;19.50;99.90
2054;DHT22;1032;52.542;13.440;2023-08-12T03:57:16;19.60;99.90
2054;DHT22;1032;52.542;13.440;2023-08-12T03:59:43;19.40;99.90
2054;DHT22;1032;52.542;13.440;2023-08-12T04:02:10;19.40;99.90
2054;DHT22;1032;52.542;13.440;2023-08-12T04:04:37;19.60;99.90
2054;DHT22;1032;52.542;13.440;2023-08-12T04:07:03;19.40;99.90
2054;DHT22;1032;52.542;13.440;2023-08-12T04:09:30;19.40;99.90
2054;DHT22;1032;52.542;13.440;2023-08-12T04:11:56;19.40;99.90
2054;DHT22;1032;52.542;13.440;2023-08-12T04:14:25;19.20;99.90
2054;DHT22;1032;52.542;13.440;2023-08-12T04:16:51;19.60;99.90
2054;DHT22;1032;52.542;13.440;2023-08-12T04:19:18;19.40;99.90
2054;DHT22;1032;52.542;13.440;2023-08-12T04:21:46;19.50;99.90
2054;DHT22;1032;52.542;13.440;2023-08-12T04:24:12;19.50;99.90
2054;DHT22;1032;52.542;13.440;2023-08-12T04:26:39;19.50;99.90
2054;DHT22;1032;52.542;13.440;2023-08-12T04:29:06;19.60;99.90
2054;DHT22;1032;52.542;13.440;2023-08-12T04:31:37;19.50;99.90
2054;DHT22;1032;52.542;13.440;2023-08-12T04:34:04;19.60;99.90
2054;DHT22;1032;52.542;13.440;2023-08-12T04:36:31;19.60;99.90
2054;DHT22;1032;52.542;13.440;2023-08-12T04:39:00;19.60;99.90
2054;DHT22;1032;52.542;13.440;2023-08-12T04:41:28;19.60;99.90
2054;DHT22;1032;52.542;13.440;2023-08-12T04:43:56;19.70;99.90
2054;DHT22;1032;52.542;13.440;2023-08-12T04:46:26;19.70;99.90
2054;DHT22;1032;52.542;13.440;2023-08-12T04:48:54;19.80;99.90
2054;DHT22;1032;52.542;13.440;2023-08-12T04:51:21;19.80;99.90
2054;DHT22;1032;52.542;13.440;2023-08-12T04:53:48;19.90;99.90
2054;DHT22;1032;52.542;13.440;2023-08-12T04:56:14;19.90;99.90
2054;DHT22;1032;52.542;13.440;2023-08-12T04:58:41;20.00;99.90
2054;DHT22;1032;52.542;13.440;2023-08-12T05:01:09;20.10;99.90
2054;DHT22;1032;52.542;13.440;2023-08-12T05:03:37;20.20;99.90
2054;DHT22;1032;52.542;13.440;2023-08-12T05:06:05;20.30;99.90
2054;DHT22;1032;52.542;13.440;2023-08-12T05:08:33;20.40;99.90
2054;DHT22;1032;52.542;13.440;2023-08-12T05:10:59;20.60;99.90
2054;DHT22;1032;52.542;13.440;2023-08-12T05:13:26;20.70;99.90
2054;DHT22;1032;52.542;13.440;2023-08-12T05:15:54;20.70;99.90
2054;DHT22;1032;52.542;13.440;2023-08-12T05:18:21;21.00;99.90
2054;DHT22;1032;52.542;13.440;2023-08-12T05:20:51;21.10;99.90
2054;DHT22;1032;52.542;13.440;2023-08-12T05:23:20;21.30;99.90
2054;DHT22;1032;52.542;13.440;2023-08-12T05:25:46;21.50;99.90
2054;DHT22;1032;52.542;13.440;2023-08-12T05:28:13;21.60;99.90
2054;DHT22;1032;52.542;13.440;2023-08-12T05:30:40;21.80;99.90
2054;DHT22;1032;52.542;13.440;2023-08-12T05:33:06;22.00;99.90
2054;DHT22;1032;52.542;13.440;2023-08-12T05:35:33;22.20;99.90
2054;DHT22;1032;52.542;13.440;2023-08-12T05:38:00;22.30;99.80
2054;DHT22;1032;52.542;13.440;2023-08-12T05:40:28;22.40;99.50
2054;DHT22;1032;52.542;13.440;2023-08-12T05:42:54;22.50;99.00
2054;DHT22;1032;52.542;13.440;2023-08-12T05:45:21;22.70;99.00
2054;DHT22;1032;52.542;13.440;2023-08-12T05:47:47;22.80;98.80
2054;DHT22;1032;52.542;13.440;2023-08-12T05:50:14;22.90;98.70
2054;DHT22;1032;52.542;13.440;2023-08-12T05:52:41;22.90;98.20
2054;DHT22;1032;52.542;13.440;2023-08-12T05:55:08;22.90;98.10
2054;DHT22;1032;52.542;13.440;2023-08-12T05:57:35;22.90;97.90
2054;DHT22;1032;52.542;13.440;2023-08-12T06:00:02;22.80;97.80
2054;DHT22;1032;52.542;13.440;2023-08-12T06:02:37;22.80;97.90
2054;DHT22;1032;52.542;13.440;2023-08-12T06:05:04;22.70;98.00
2054;DHT22;1032;52.542;13.440;2023-08-12T06:07:30;22.70;98.00
2054;DHT22;1032;52.542;13.440;2023-08-12T06:09:57;22.70;98.10
2054;DHT22;1032;52.542;13.440;2023-08-12T06:12:24;22.60;98.00
2054;DHT22;1032;52.542;13.440;2023-08-12T06:14:51;22.60;98.10
2054;DHT22;1032;52.542;13.440;2023-08-12T06:17:18;22.60;98.20
2054;DHT22;1032;52.542;13.440;2023-08-12T06:19:45;22.60;98.10
2054;DHT22;1032;52.542;13.440;2023-08-12T06:22:11;22.50;98.00
2054;DHT22;1032;52.542;13.440;2023-08-12T06:24:38;22.70;98.20
2054;DHT22;1032;52.542;13.440;2023-08-12T06:27:05;22.80;98.20
2054;DHT22;1032;52.542;13.440;2023-08-12T06:29:31;22.80;98.10
2054;DHT22;1032;52.542;13.440;2023-08-12T06:31:59;22.80;98.00
2054;DHT22;1032;52.542;13.440;2023-08-12T06:34:26;23.00;98.00
2054;DHT22;1032;52.542;13.440;2023-08-12T06:36:53;23.00;97.90
2054;DHT22;1032;52.542;13.440;2023-08-12T06:39:19;23.10;97.90
2054;DHT22;1032;52.542;13.440;2023-08-12T06:41:46;23.20;97.80
2054;DHT22;1032;52.542;13.440;2023-08-12T06:44:12;23.20;97.70
2054;DHT22;1032;52.542;13.440;2023-08-12T06:46:39;23.30;97.50
2054;DHT22;1032;52.542;13.440;2023-08-12T06:49:07;23.30;97.40
2054;DHT22;1032;52.542;13.440;2023-08-12T06:51:33;23.30;97.40
2054;DHT22;1032;52.542;13.440;2023-08-12T06:53:59;23.30;97.30
2054;DHT22;1032;52.542;13.440;2023-08-12T06:56:26;23.30;97.30
2054;DHT22;1032;52.542;13.440;2023-08-12T06:58:52;23.40;97.30
2054;DHT22;1032;52.542;13.440;2023-08-12T07:01:19;23.40;97.20
2054;DHT22;1032;52.542;13.440;2023-08-12T07:03:45;23.50;97.20
2054;DHT22;1032;52.542;13.440;2023-08-12T07:06:14;23.60;97.20
2054;DHT22;1032;52.542;13.440;2023-08-12T07:08:41;23.70;97.10
2054;DHT22;1032;52.542;13.440;2023-08-12T07:11:07;23.80;97.00
2054;DHT22;1032;52.542;13.440;2023-08-12T07:13:34;23.90;97.00
2054;DHT22;1032;52.542;13.440;2023-08-12T07:16:01;24.10;97.00
2054;DHT22;1032;52.542;13.440;2023-08-12T07:18:27;24.10;96.80
2054;DHT22;1032;52.542;13.440;2023-08-12T07:20:55;24.20;96.60
2054;DHT22;1032;52.542;13.440;2023-08-12T07:23:24;24.30;96.40
2054;DHT22;1032;52.542;13.440;2023-08-12T07:25:51;24.40;96.40
2054;DHT22;1032;52.542;13.440;2023-08-12T07:28:18;24.40;96.30
2054;DHT22;1032;52.542;13.440;2023-08-12T07:30:44;24.40;96.20
2054;DHT22;1032;52.542;13.440;2023-08-12T07:33:11;24.50;96.20
2054;DHT22;1032;52.542;13.440;2023-08-12T07:35:38;24.50;96.20
2054;DHT22;1032;52.542;13.440;2023-08-12T07:38:04;24.60;96.10
2054;DHT22;1032;52.542;13.440;2023-08-12T07:40:32;24.70;96.00
2054;DHT22;1032;52.542;13.440;2023-08-12T07:42:59;24.80;95.90
2054;DHT22;1032;52.542;13.440;2023-08-12T07:45:26;24.80;95.60
2054;DHT22;1032;52.542;13.440;2023-08-12T07:47:52;24.90;95.40
2054;DHT22;1032;52.542;13.440;2023-08-12T07:50:19;24.90;95.30
2054;DHT22;1032;52.542;13.440;2023-08-12T07:52:46;25.00;95.30
2054;DHT22;1032;52.542;13.440;2023-08-12T07:55:12;25.10;95.20
2054;DHT22;1032;52.542;13.440;2023-08-12T07:57:41;25.10;95.10
2054;DHT22;1032;52.542;13.440;2023-08-12T08:00:08;25.20;95.10
2054;DHT22;1032;52.542;13.440;2023-08-12T08:02:35;25.30;95.00
2054;DHT22;1032;52.542;13.440;2023-08-12T08:05:02;25.40;94.90
2054;DHT22;1032;52.542;13.440;2023-08-12T08:07:29;25.50;94.80
2054;DHT22;1032;52.542;13.440;2023-08-12T08:09:56;25.50;94.70
2054;DHT22;1032;52.542;13.440;2023-08-12T08:12:23;25.50;94.60
2054;DHT22;1032;52.542;13.440;2023-08-12T08:14:51;25.40;94.60
2054;DHT22;1032;52.542;13.440;2023-08-12T08:17:17;25.40;94.70
2054;DHT22;1032;52.542;13.440;2023-08-12T08:19:44;25.30;94.70
2054;DHT22;1032;52.542;13.440;2023-08-12T08:22:10;25.40;94.70
2054;DHT22;1032;52.542;13.440;2023-08-12T08:24:37;25.30;94.70
2054;DHT22;1032;52.542;13.440;2023-08-12T08:27:04;25.40;94.70
2054;DHT22;1032;52.542;13.440;2023-08-12T08:29:31;25.40;94.70
2054;DHT22;1032;52.542;13.440;2023-08-12T08:31:59;25.30;94.60
2054;DHT22;1032;52.542;13.440;2023-08-12T08:34:26;25.30;94.60
2054;DHT22;1032;52.542;13.440;2023-08-12T08:36:52;25.20;94.70
2054;DHT22;1032;52.542;13.440;2023-08-12T08:39:19;25.20;94.80
2054;DHT22;1032;52.542;13.440;2023-08-12T08:41:48;25.10;94.90
2054;DHT22;1032;52.542;13.440;2023-08-12T08:44:15;25.10;95.00
2054;DHT22;1032;52.542;13.440;2023-08-12T08:46:43;25.00;95.20
2054;DHT22;1032;52.542;13.440;2023-08-12T08:49:15;24.90;95.20
2054;DHT22;1032;52.542;13.440;2023-08-12T08:51:42;24.90;95.40
2054;DHT22;1032;52.542;13.440;2023-08-12T08:54:10;24.90;95.50
2054;DHT22;1032;52.542;13.440;2023-08-12T08:56:37;24.80;95.60
2054;DHT22;1032;52.542;13.440;2023-08-12T08:59:04;24.80;95.70
2054;DHT22;1032;52.542;13.440;2023-08-12T09:01:31;24.80;95.90
2054;DHT22;1032;52.542;13.440;2023-08-12T09:03:58;24.90;96.00
2054;DHT22;1032;52.542;13.440;2023-08-12T09:06:28;24.90;96.20
2054;DHT22;1032;52.542;13.440;2023-08-12T09:08:55;25.00;96.40
2054;DHT22;1032;52.542;13.440;2023-08-12T09:11:23;25.00;96.40
2054;DHT22;1032;52.542;13.440;2023-08-12T09:13:50;25.00;96.40
2054;DHT22;1032;52.542;13.440;2023-08-12T09:16:17;25.10;96.40
2054;DHT22;1032;52.542;13.440;2023-08-12T09:18:43;25.10;96.30
2054;DHT22;1032;52.542;13.440;2023-08-12T09:21:11;25.20;96.40
2054;DHT22;1032;52.542;13.440;2023-08-12T09:23:40;25.20;96.30
2054;DHT22;1032;52.542;13.440;2023-08-12T09:26:13;25.30;96.30
2054;DHT22;1032;52.542;13.440;2023-08-12T09:28:40;25.30;96.20
2054;DHT22;1032;52.542;13.440;2023-08-12T09:31:07;25.50;96.20
2054;DHT22;1032;52.542;13.440;2023-08-12T09:33:38;25.50;96.10
2054;DHT22;1032;52.542;13.440;2023-08-12T09:36:05;25.60;96.20
2054;DHT22;1032;52.542;13.440;2023-08-12T09:38:32;25.70;96.10
2054;DHT22;1032;52.542;13.440;2023-08-12T09:41:00;25.80;96.00
2054;DHT22;1032;52.542;13.440;2023-08-12T09:43:28;26.00;95.80
2054;DHT22;1032;52.542;13.440;2023-08-12T09:45:56;26.10;95.50
2054;DHT22;1032;52.542;13.440;2023-08-12T09:48:23;26.20;95.20
2054;DHT22;1032;52.542;13.440;2023-08-12T09:50:49;26.30;95.10
2054;DHT22;1032;52.542;13.440;2023-08-12T09:53:16;26.30;94.90
2054;DHT22;1032;52.542;13.440;2023-08-12T09:55:43;26.30;94.80
2054;DHT22;1032;52.542;13.440;2023-08-12T09:58:17;26.30;94.90
2054;DHT22;1032;52.542;13.440;2023-08-12T10:00:45;26.40;94.90
2054;DHT22;1032;52.542;13.440;2023-08-12T10:03:12;26.40;94.80
2054;DHT22;1032;52.542;13.440;2023-08-12T10:05:40;26.40;94.80
2054;DHT22;1032;52.542;13.440;2023-08-12T10:08:07;26.40;94.80
2054;DHT22;1032;52.542;13.440;2023-08-12T10:10:35;26.50;94.90
2054;DHT22;1032;52.542;13.440;2023-08-12T10:13:02;26.50;94.80
2054;DHT22;1032;52.542;13.440;2023-08-12T10:15:34;26.80;94.90
2054;DHT22;1032;52.542;13.440;2023-08-12T10:18:01;26.70;94.90
2054;DHT22;1032;52.542;13.440;2023-08-12T10:20:30;26.60;94.80
2054;DHT22;1032;52.542;13.440;2023-08-12T10:22:59;26.60;94.80
2054;DHT22;1032;52.542;13.440;2023-08-12T10:25:31;26.70;94.90
2054;DHT22;1032;52.542;13.440;2023-08-12T10:27:58;26.70;94.90
2054;DHT22;1032;52.542;13.440;2023-08-12T10:30:28;26.70;94.90
2054;DHT22;1032;52.542;13.440;2023-08-12T10:32:57;26.70;95.00
2054;DHT22;1032;52.542;13.440;2023-08-12T10:35:40;26.70;95.00
2054;DHT22;1032;52.542;13.440;2023-08-12T10:38:07;26.90;94.80
2054;DHT22;1032;52.542;13.440;2023-08-12T10:40:34;26.70;94.70
2054;DHT22;1032;52.542;13.440;2023-08-12T10:43:00;26.90;94.60
2054;DHT22;1032;52.542;13.440;2023-08-12T10:45:42;27.10;94.60
2054;DHT22;1032;52.542;13.440;2023-08-12T10:48:23;27.20;94.50
2054;DHT22;1032;52.542;13.440;2023-08-12T10:50:53;27.20;94.50
2054;DHT22;1032;52.542;13.440;2023-08-12T10:53:22;27.30;94.50
2054;DHT22;1032;52.542;13.440;2023-08-12T10:55:48;27.30;94.40
2054;DHT22;1032;52.542;13.440;2023-08-12T10:58:24;27.30;94.40
2054;DHT22;1032;52.542;13.440;2023-08-12T11:00:53;27.30;94.30
2054;DHT22;1032;52.542;13.440;2023-08-12T11:03:21;27.40;94.30
2054;DHT22;1032;52.542;13.440;2023-08-12T11:05:48;27.40;94.50
2054;DHT22;1032;52.542;13.440;2023-08-12T11:08:16;27.40;94.50
2054;DHT22;1032;52.542;13.440;2023-08-12T11:10:44;27.40;94.60
2054;DHT22;1032;52.542;13.440;2023-08-12T11:13:10;27.50;94.60
2054;DHT22;1032;52.542;13.440;2023-08-12T11:15:38;27.50;94.60
2054;DHT22;1032;52.542;13.440;2023-08-12T11:18:08;27.50;94.60
2054;DHT22;1032;52.542;13.440;2023-08-12T11:20:37;27.50;94.80
2054;DHT22;1032;52.542;13.440;2023-08-12T11:23:04;27.60;94.80
2054;DHT22;1032;52.542;13.440;2023-08-12T11:25:32;27.60;94.80
2054;DHT22;1032;52.542;13.440;2023-08-12T11:28:00;27.70;94.80
2054;DHT22;1032;52.542;13.440;2023-08-12T11:30:27;27.80;94.80
2054;DHT22;1032;52.542;13.440;2023-08-12T11:32:55;27.80;94.80
2054;DHT22;1032;52.542;13.440;2023-08-12T11:35:23;27.80;94.60
2054;DHT22;1032;52.542;13.440;2023-08-12T11:37:52;27.90;94.50
2054;DHT22;1032;52.542;13.440;2023-08-12T11:40:21;27.80;94.20
2054;DHT22;1032;52.542;13.440;2023-08-12T11:42:49;27.80;94.20
2054;DHT22;1032;52.542;13.440;2023-08-12T11:45:18;27.80;94.20
2054;DHT22;1032;52.542;13.440;2023-08-12T11:47:45;27.80;94.20
2054;DHT22;1032;52.542;13.440;2023-08-12T11:50:18;27.70;94.10
2054;DHT22;1032;52.542;13.440;2023-08-12T11:52:46;27.70;93.70
2054;DHT22;1032;52.542;13.440;2023-08-12T11:55:14;27.60;93.60
2054;DHT22;1032;52.542;13.440;2023-08-12T11:57:41;27.40;93.70
2054;DHT22;1032;52.542;13.440;2023-08-12T12:00:11;27.50;93.90
2054;DHT22;1032;52.542;13.440;2023-08-12T12:02:41;27.40;94.10
2054;DHT22;1032;52.542;13.440;2023-08-12T12:05:09;27.40;94.70
2054;DHT22;1032;52.542;13.440;2023-08-12T12:07:36;27.40;94.40
2054;DHT22;1032;52.542;13.440;2023-08-12T12:10:04;27.30;94.30
2054;DHT22;1032;52.542;13.440;2023-08-12T12:12:34;27.30;94.30
2054;DHT22;1032;52.542;13.440;2023-08-12T12:15:01;27.40;94.60
2054;DHT22;1032;52.542;13.440;2023-08-12T12:17:28;27.50;94.80
2054;DHT22;1032;52.542;13.440;2023-08-12T12:19:56;27.50;95.40
2054;DHT22;1032;52.542;13.440;2023-08-12T12:22:26;27.50;95.90
2054;DHT22;1032;52.542;13.440;2023-08-12T12:24:54;27.50;95.30
2054;DHT22;1032;52.542;13.440;2023-08-12T12:27:21;27.40;95.20
2054;DHT22;1032;52.542;13.440;2023-08-12T12:29:49;27.50;95.10
2054;DHT22;1032;52.542;13.440;2023-08-12T12:32:18;27.40;95.20
2054;DHT22;1032;52.542;13.440;2023-08-12T12:34:45;27.50;95.30
2054;DHT22;1032;52.542;13.440;2023-08-12T12:37:12;27.40;95.20
2054;DHT22;1032;52.542;13.440;2023-08-12T12:39:38;27.40;95.20
2054;DHT22;1032;52.542;13.440;2023-08-12T12:42:05;27.30;95.10
2054;DHT22;1032;52.542;13.440;2023-08-12T12:44:32;27.30;94.90
2054;DHT22;1032;52.542;13.440;2023-08-12T12:47:00;27.20;95.00
2054;DHT22;1032;52.542;13.440;2023-08-12T12:49:27;27.20;95.10
2054;DHT22;1032;52.542;13.440;2023-08-12T12:51:54;27.30;95.10
2054;DHT22;1032;52.542;13.440;2023-08-12T12:54:21;27.30;95.00
2054;DHT22;1032;52.542;13.440;2023-08-12T12:56:48;27.40;94.90
2054;DHT22;1032;52.542;13.440;2023-08-12T12:59:14;27.50;94.70
2054;DHT22;1032;52.542;13.440;2023-08-12T13:01:41;27.60;94.40
2054;DHT22;1032;52.542;13.440;2023-08-12T13:04:09;27.70;94.20
2054;DHT22;1032;52.542;13.440;2023-08-12T13:06:36;27.90;94.10
2054;DHT22;1032;52.542;13.440;2023-08-12T13:09:03;28.00;94.00
2054;DHT22;1032;52.542;13.440;2023-08-12T13:11:32;28.10;94.00
2054;DHT22;1032;52.542;13.440;2023-08-12T13:13:58;28.10;93.90
2054;DHT22;1032;52.542;13.440;2023-08-12T13:16:25;28.20;93.90
2054;DHT22;1032;52.542;13.440;2023-08-12T13:18:52;28.20;93.80
2054;DHT22;1032;52.542;13.440;2023-08-12T13:21:20;28.20;93.80
2054;DHT22;1032;52.542;13.440;2023-08-12T13:23:46;28.40;93.80
2054;DHT22;1032;52.542;13.440;2023-08-12T13:26:13;28.50;93.60
2054;DHT22;1032;52.542;13.440;2023-08-12T13:28:39;28.50;93.30
2054;DHT22;1032;52.542;13.440;2023-08-12T13:31:06;28.50;93.20
2054;DHT22;1032;52.542;13.440;2023-08-12T13:33:34;28.50;93.20
2054;DHT22;1032;52.542;13.440;2023-08-12T13:36:00;28.60;93.30
2054;DHT22;1032;52.542;13.440;2023-08-12T13:38:28;28.60;93.30
2054;DHT22;1032;52.542;13.440;2023-08-12T13:40:55;28.70;93.10
2054;DHT22;1032;52.542;13.440;2023-08-12T13:43:21;28.70;93.00
2054;DHT22;1032;52.542;13.440;2023-08-12T13:45:48;28.80;92.90
2054;DHT22;1032;52.542;13.440;2023-08-12T13:48:15;28.70;92.80
2054;DHT22;1032;52.542;13.440;2023-08-12T13:50:41;28.60;92.70
2054;DHT22;1032;52.542;13.440;2023-08-12T13:53:08;28.60;92.70
2054;DHT22;1032;52.542;13.440;2023-08-12T13:55:36;28.60;92.80
2054;DHT22;1032;52.542;13.440;2023-08-12T13:58:03;28.60;92.90
2054;DHT22;1032;52.542;13.440;2023-08-12T14:00:29;28.70;92.90
2054;DHT22;1032;52.542;13.440;2023-08-12T14:02:56;28.70;92.80
2054;DHT22;1032;52.542;13.440;2023-08-12T14:05:23;28.70;92.90
2054;DHT22;1032;52.542;13.440;2023-08-12T14:07:50;28.70;92.50
2054;DHT22;1032;52.542;13.440;2023-08-12T14:10:17;28.70;92.10
2054;DHT22;1032;52.542;13.440;2023-08-12T14:12:44;28.60;91.60
2054;DHT22;1032;52.542;13.440;2023-08-12T14:15:13;28.60;91.50
2054;DHT22;1032;52.542;13.440;2023-08-12T14:17:40;28.60;91.40
2054;DHT22;1032;52.542;13.440;2023-08-12T14:20:07;28.60;91.40
2054;DHT22;1032;52.542;13.440;2023-08-12T14:22:34;28.60;91.30
2054;DHT22;1032;52.542;13.440;2023-08-12T14:25:01;28.70;91.30
2054;DHT22;1032;52.542;13.440;2023-08-12T14:27:29;28.70;91.10
2054;DHT22;1032;52.542;13.440;2023-08-12T14:29:57;28.70;91.00
2054;DHT22;1032;52.542;13.440;2023-08-12T14:32:23;28.70;91.00
2054;DHT22;1032;52.542;13.440;2023-08-12T14:34:50;28.70;91.00
2054;DHT22;1032;52.542;13.440;2023-08-12T14:37:16;28.70;91.00
2054;DHT22;1032;52.542;13.440;2023-08-12T14:39:43;28.70;90.80
2054;DHT22;1032;52.542;13.440;2023-08-12T14:42:09;28.70;91.00
2054;DHT22;1032;52.542;13.440;2023-08-12T14:44:36;28.70;90.50
2054;DHT22;1032;52.542;13.440;2023-08-12T14:47:05;28.60;90.50
2054;DHT22;1032;52.542;13.440;2023-08-12T14:49:31;28.70;90.50
2054;DHT22;1032;52.542;13.440;2023-08-12T14:51:58;28.60;90.40
2054;DHT22;1032;52.542;13.440;2023-08-12T14:54:25;28.60;90.50
2054;DHT22;1032;52.542;13.440;2023-08-12T14:56:52;28.60;90.60
2054;DHT22;1032;52.542;13.440;2023-08-12T14:59:18;28.60;90.50
2054;DHT22;1032;52.542;13.440;2023-08-12T15:01:45;28.80;90.60
2054;DHT22;1032;52.542;13.440;2023-08-12T15:04:13;28.80;90.40
2054;DHT22;1032;52.542;13.440;2023-08-12T15:06:39;28.90;90.50
2054;DHT22;1032;52.542;13.440;2023-08-12T15:09:06;29.00;90.20
2054;DHT22;1032;52.542;13.440;2023-08-12T15:11:34;29.10;90.10
2054;DHT22;1032;52.542;13.440;2023-08-12T15:14:01;29.10;89.90
2054;DHT22;1032;52.542;13.440;2023-08-12T15:16:27;28.80;89.60
2054;DHT22;1032;52.542;13.440;2023-08-12T15:18:54;29.00;89.90
2054;DHT22;1032;52.542;13.440;2023-08-12T15:21:22;28.90;90.00
2054;DHT22;1032;52.542;13.440;2023-08-12T15:23:48;28.80;89.50
2054;DHT22;1032;52.542;13.440;2023-08-12T15:26:15;28.80;89.70
2054;DHT22;1032;52.542;13.440;2023-08-12T15:28:43;28.80;90.10
2054;DHT22;1032;52.542;13.440;2023-08-12T15:31:11;28.70;90.10
2054;DHT22;1032;52.542;13.440;2023-08-12T15:33:37;28.70;90.20
2054;DHT22;1032;52.542;13.440;2023-08-12T15:36:04;28.70;90.20
2054;DHT22;1032;52.542;13.440;2023-08-12T15:38:32;28.70;90.30
2054;DHT22;1032;52.542;13.440;2023-08-12T15:40:59;28.70;90.40
2054;DHT22;1032;52.542;13.440;2023-08-12T15:43:26;28.70;90.60
2054;DHT22;1032;52.542;13.440;2023-08-12T15:45:52;28.70;90.70